Time;durP1;ratioP1;P1;durP2;ratioP2;P2;SDS_P1;SDS_P2;PMS_P1;PMS_P2;Temp;Humidity;BMP_temperature;BMP_pressure;BME280_temperature;BME280_humidity;BME280_pressure;Samples;Min_cycle;Max_cycle;Signal;HPM_P1;HPM_P2
2022/03/06 00:01:48;;;;;;;20.10;10.40;;;;;;;-3.38;75.02;99851.56;5030482;28;20045;-53
2022/03/06 00:04:14;;;;;;;18.70;9.70;;;;;;;-2.99;75.49;99859.44;5030016;28;20063;-53
2022/03/06 00:06:39;;;;;;;19.60;10.15;;;;;;;-3.08;75.74;99864.53;5034954;28;20053;-52
2022/03/06 00:09:05;;;;;;;21.60;11.10;;;;;;;-3.03;74.52;99862.31;5048351;28;20038;-52
2022/03/06 00:11:30;;;;;;;16.10;8.57;;;;;;;-3.08;73.44;99859.28;5033823;28;20041;-54
2022/03/06 00:13:55;;;;;;;25.38;12.68;;;;;;;-2.84;74.16;99871.97;5032440;28;20025;-54
2022/03/06 00:16:21;;;;;;;22.02;11.23;;;;;;;-2.35;74.21;99871.00;5030802;28;20483;-55
2022/03/06 00:18:46;;;;;;;21.67;11.38;;;;;;;-2.82;73.17;99867.41;5031907;28;20040;-53
2022/03/06 00:21:13;;;;;;;24.30;12.02;;;;;;;-2.75;76.47;99872.91;5033940;28;20049;-54
2022/03/06 00:23:38;;;;;;;23.52;12.63;;;;;;;-2.38;77.01;99867.69;5039146;28;20033;-52
2022/03/06 00:26:03;;;;;;;26.40;12.70;;;;;;;-2.49;72.61;99864.44;5028235;28;20044;-54
2022/03/06 00:28:29;;;;;;;26.30;10.80;;;;;;;-2.34;75.66;99856.94;5030265;28;20402;-54
2022/03/06 00:30:54;;;;;;;21.88;10.82;;;;;;;-3.08;73.97;99858.44;5036644;28;20042;-54
2022/03/06 00:33:20;;;;;;;18.77;10.10;;;;;;;-3.25;75.18;99860.78;5035696;28;20029;-52
2022/03/06 00:35:45;;;;;;;18.05;10.43;;;;;;;-3.36;75.35;99855.69;5031327;28;20042;-52
2022/03/06 00:38:10;;;;;;;24.98;12.60;;;;;;;-3.54;76.94;99859.97;5032945;28;20025;-52
2022/03/06 00:40:36;;;;;;;22.00;11.55;;;;;;;-3.58;77.91;99858.59;5040591;28;20041;-52
2022/03/06 00:43:02;;;;;;;24.52;11.00;;;;;;;-3.74;76.54;99854.69;5034614;28;20409;-54
2022/03/06 00:45:27;;;;;;;24.15;11.45;;;;;;;-3.83;77.27;99855.50;5035514;28;20045;-52
2022/03/06 00:47:53;;;;;;;22.23;11.45;;;;;;;-3.73;78.43;99863.38;5027962;28;20049;-51
2022/03/06 00:50:18;;;;;;;23.23;11.63;;;;;;;-3.91;78.64;99865.81;5032929;28;20025;-52
2022/03/06 00:52:44;;;;;;;27.60;11.98;;;;;;;-3.99;78.43;99868.28;5032158;28;20634;-54
2022/03/06 00:55:09;;;;;;;21.83;11.98;;;;;;;-3.83;78.91;99873.84;5032502;28;20518;-53
2022/03/06 00:57:35;;;;;;;25.67;11.73;;;;;;;-3.80;78.36;99865.69;5038695;28;20021;-51
2022/03/06 01:00:00;;;;;;;27.35;11.45;;;;;;;-3.88;77.66;99872.59;5041711;28;20368;-52
2022/03/06 01:02:27;;;;;;;22.92;11.73;;;;;;;-3.96;78.19;99868.03;5032859;28;20034;-55
2022/03/06 01:04:52;;;;;;;24.88;13.13;;;;;;;-3.79;77.53;99869.19;5034533;28;20064;-53
2022/03/06 01:07:17;;;;;;;23.40;11.70;;;;;;;-3.79;79.05;99867.38;5035344;28;20045;-51
2022/03/06 01:09:43;;;;;;;28.27;12.27;;;;;;;-3.66;79.24;99868.91;5030518;28;20486;-51
2022/03/06 01:12:08;;;;;;;21.60;11.63;;;;;;;-3.80;77.74;99868.31;5031607;28;20562;-54
2022/03/06 01:14:34;;;;;;;25.42;12.10;;;;;;;-3.66;77.67;99868.91;5036284;28;20484;-54
2022/03/06 01:16:59;;;;;;;23.48;12.25;;;;;;;-3.49;80.90;99865.63;5032953;28;20053;-52
2022/03/06 01:19:24;;;;;;;26.02;12.27;;;;;;;-3.84;76.74;99859.09;5036906;28;20029;-55
2022/03/06 01:21:50;;;;;;;28.23;13.15;;;;;;;-3.39;78.42;99876.13;5032344;28;20045;-54
2022/03/06 01:24:15;;;;;;;20.20;11.40;;;;;;;-3.65;77.18;99870.56;5031991;28;20063;-53
2022/03/06 01:26:41;;;;;;;23.40;11.13;;;;;;;-3.67;77.17;99872.47;5036505;28;20597;-53
2022/03/06 01:29:06;;;;;;;25.70;11.98;;;;;;;-3.69;78.43;99872.63;5031599;28;20037;-53
2022/03/06 01:31:31;;;;;;;24.38;11.02;;;;;;;-3.88;77.68;99870.78;5033824;28;20049;-54
2022/03/06 01:33:57;;;;;;;19.95;9.48;;;;;;;-3.84;79.84;99872.19;5034956;28;20033;-54
2022/03/06 01:36:22;;;;;;;18.52;9.75;;;;;;;-3.54;84.03;99873.06;5033669;28;20038;-52
2022/03/06 01:38:48;;;;;;;16.63;8.48;;;;;;;-3.70;76.23;99877.03;5034742;28;20033;-53
2022/03/06 01:41:13;;;;;;;18.67;10.25;;;;;;;-3.81;77.32;99871.91;5036161;28;20476;-54
2022/03/06 01:43:39;;;;;;;25.52;11.07;;;;;;;-3.52;76.04;99876.38;5032166;28;20040;-54
2022/03/06 01:46:04;;;;;;;21.60;10.10;;;;;;;-3.63;75.60;99874.69;5035039;28;20049;-54
2022/03/06 01:48:30;;;;;;;25.90;11.75;;;;;;;-3.73;77.37;99874.69;5033690;28;20041;-51
2022/03/06 01:50:55;;;;;;;22.73;11.45;;;;;;;-3.71;82.74;99871.94;5034233;28;20049;-53
2022/03/06 01:53:21;;;;;;;25.17;10.50;;;;;;;-3.78;84.85;99873.44;5032791;28;20490;-52
2022/03/06 01:55:46;;;;;;;24.38;10.95;;;;;;;-3.75;78.41;99873.97;5031068;28;20053;-51
2022/03/06 01:58:12;;;;;;;18.98;10.85;;;;;;;-4.01;77.55;99864.97;5037020;28;20071;-51
2022/03/06 02:00:44;;;;;;;25.20;11.98;;;;;;;-3.85;80.21;99869.69;5035738;28;20407;-54
2022/03/06 02:03:09;;;;;;;21.73;11.80;;;;;;;-3.39;78.71;99869.09;5035261;28;20089;-54
2022/03/06 02:05:35;;;;;;;20.60;11.48;;;;;;;-3.49;76.38;99870.88;5036356;28;20049;-51
2022/03/06 02:08:00;;;;;;;25.55;12.50;;;;;;;-3.76;77.15;99869.72;5035224;28;20107;-52
2022/03/06 02:10:25;;;;;;;22.77;11.77;;;;;;;-3.92;77.55;99867.63;5036022;28;20037;-52
2022/03/06 02:12:51;;;;;;;23.55;12.65;;;;;;;-3.83;79.09;99862.53;5029509;28;20616;-52
2022/03/06 02:15:17;;;;;;;23.42;11.25;;;;;;;-4.06;78.85;99862.75;5031615;28;20025;-54
2022/03/06 02:17:43;;;;;;;19.60;10.98;;;;;;;-3.93;78.89;99867.75;5028658;28;20041;-53
2022/03/06 02:20:12;;;;;;;24.45;11.02;;;;;;;-4.05;79.81;99874.88;5039577;28;20384;-52
2022/03/06 02:22:42;;;;;;;20.55;10.82;;;;;;;-3.84;80.44;99866.94;5036848;28;20451;-52
2022/03/06 02:25:13;;;;;;;24.20;12.43;;;;;;;-3.89;79.80;99869.16;5032409;28;20108;-54
2022/03/06 02:27:39;;;;;;;26.58;11.95;;;;;;;-3.51;84.76;99878.03;5031705;28;20041;-53
2022/03/06 02:30:09;;;;;;;24.92;12.20;;;;;;;-3.78;79.82;99868.19;5035850;28;20069;-53
2022/03/06 02:32:35;;;;;;;25.80;12.27;;;;;;;-4.02;79.47;99865.91;5027992;28;20021;-52
2022/03/06 02:35:01;;;;;;;25.02;11.85;;;;;;;-4.19;79.88;99876.06;5028653;28;20030;-51
2022/03/06 02:37:26;;;;;;;25.05;11.98;;;;;;;-4.10;83.92;99879.66;5031503;28;20471;-51
2022/03/06 02:39:52;;;;;;;27.58;14.18;;;;;;;-4.25;81.41;99879.19;5030248;28;20057;-53
2022/03/06 02:42:29;;;;;;;27.23;12.52;;;;;;;-4.00;81.98;99877.09;5028477;28;20044;-52
2022/03/06 02:44:55;;;;;;;23.40;11.57;;;;;;;-4.17;80.25;99875.91;5038210;28;20056;-52
2022/03/06 02:47:21;;;;;;;23.42;11.88;;;;;;;-4.12;82.63;99874.59;5031812;28;20111;-50
2022/03/06 02:49:46;;;;;;;23.92;12.02;;;;;;;-4.14;81.41;99876.50;5041026;28;20029;-54
2022/03/06 02:52:12;;;;;;;22.10;11.93;;;;;;;-4.45;80.20;99874.84;5034130;28;20037;-54
2022/03/06 02:54:37;;;;;;;24.48;11.75;;;;;;;-4.70;81.39;99873.47;5033173;28;20488;-55
2022/03/06 02:57:05;;;;;;;21.75;11.63;;;;;;;-4.78;82.03;99876.72;5032158;28;20064;-55
2022/03/06 02:59:30;;;;;;;25.38;12.15;;;;;;;-4.89;81.97;99880.25;5038342;28;20048;-54
2022/03/06 03:01:56;;;;;;;26.60;12.75;;;;;;;-4.95;83.13;99885.16;5031568;28;20306;-54
2022/03/06 03:04:21;;;;;;;23.88;12.00;;;;;;;-4.90;84.83;99877.75;5032737;28;20029;-53
2022/03/06 03:06:50;;;;;;;24.38;11.40;;;;;;;-4.80;86.07;99876.84;5026627;28;20050;-55
2022/03/06 03:09:19;;;;;;;26.38;11.73;;;;;;;-4.64;86.01;99881.63;5033860;28;20109;-53
2022/03/06 03:11:48;;;;;;;27.60;12.07;;;;;;;-4.51;85.41;99878.81;5040385;28;20041;-54
2022/03/06 03:14:14;;;;;;;20.58;11.95;;;;;;;-4.61;84.17;99886.59;5034150;28;20101;-52
2022/03/06 03:16:40;;;;;;;20.85;10.45;;;;;;;-4.52;84.76;99886.78;5034279;28;20040;-52
2022/03/06 03:19:05;;;;;;;20.85;11.20;;;;;;;-4.55;84.66;99887.88;5031727;28;20030;-54
2022/03/06 03:21:30;;;;;;;23.02;11.73;;;;;;;-4.62;83.17;99879.72;5033264;28;20044;-50
2022/03/06 03:23:56;;;;;;;26.17;12.80;;;;;;;-4.63;82.89;99891.13;5036634;28;20049;-52
2022/03/06 03:26:21;;;;;;;28.85;12.60;;;;;;;-4.82;82.54;99893.63;5039557;28;20045;-51
2022/03/06 03:28:47;;;;;;;22.13;11.63;;;;;;;-4.81;82.42;99897.91;5034965;28;20534;-51
2022/03/06 03:31:12;;;;;;;21.73;11.38;;;;;;;-4.75;85.45;99891.34;5021153;28;20037;-52
2022/03/06 03:33:37;;;;;;;23.33;10.95;;;;;;;-4.64;85.45;99894.72;5033022;28;20472;-51
2022/03/06 03:36:03;;;;;;;20.90;10.32;;;;;;;-4.08;89.76;99898.69;5030880;28;20368;-52
2022/03/06 03:38:29;;;;;;;24.67;11.40;;;;;;;-4.36;86.07;99898.44;5035693;28;20032;-51
2022/03/06 03:40:54;;;;;;;25.83;11.27;;;;;;;-4.55;83.33;99899.16;5034364;28;20052;-53
2022/03/06 03:43:19;;;;;;;26.80;12.05;;;;;;;-4.66;82.60;99898.41;5046494;28;20094;-54
2022/03/06 03:45:45;;;;;;;25.05;12.27;;;;;;;-4.68;83.80;99902.94;5035423;28;20499;-51
2022/03/06 03:48:10;;;;;;;22.77;12.13;;;;;;;-4.78;83.00;99898.47;5032617;28;20033;-51
2022/03/06 03:50:36;;;;;;;22.80;11.40;;;;;;;-4.81;84.72;99903.13;5035782;28;20053;-51
2022/03/06 03:53:01;;;;;;;22.45;11.95;;;;;;;-4.75;86.67;99904.41;5031628;28;20056;-54
2022/03/06 03:55:26;;;;;;;26.70;12.88;;;;;;;-4.71;84.46;99898.81;5035272;28;20499;-54
2022/03/06 03:57:52;;;;;;;22.35;12.27;;;;;;;-4.53;85.16;99899.03;5035815;28;20029;-52
2022/03/06 04:00:17;;;;;;;25.88;12.90;;;;;;;-4.46;84.27;99897.56;5033247;28;20084;-52
2022/03/06 04:02:43;;;;;;;26.48;13.27;;;;;;;-4.35;85.47;99897.47;5036449;28;20033;-54
2022/03/06 04:05:08;;;;;;;27.20;12.43;;;;;;;-4.56;82.63;99905.38;5033487;28;20076;-51
2022/03/06 04:07:34;;;;;;;24.63;12.02;;;;;;;-4.68;82.88;99903.78;5030092;28;20030;-54
2022/03/06 04:10:03;;;;;;;25.33;12.80;;;;;;;-4.70;84.04;99899.63;5038222;28;20033;-53
2022/03/06 04:12:28;;;;;;;26.25;11.55;;;;;;;-4.73;84.06;99905.94;5030681;28;20410;-54
2022/03/06 04:14:53;;;;;;;21.65;12.05;;;;;;;-4.75;83.97;99910.47;5030538;28;20412;-54
2022/03/06 04:17:19;;;;;;;28.65;13.68;;;;;;;-4.90;83.26;99911.75;5028371;28;20037;-52
2022/03/06 04:19:44;;;;;;;24.33;12.32;;;;;;;-4.86;84.99;99907.94;5035224;28;20091;-51
2022/03/06 04:22:10;;;;;;;30.17;13.68;;;;;;;-4.49;86.51;99907.44;5031683;28;20037;-54
2022/03/06 04:24:35;;;;;;;31.40;13.43;;;;;;;-4.46;87.46;99902.81;5035964;28;20084;-53
2022/03/06 04:27:00;;;;;;;26.08;12.88;;;;;;;-4.72;86.09;99915.44;5027974;28;20045;-53
2022/03/06 04:29:26;;;;;;;28.30;13.82;;;;;;;-4.84;84.74;99913.84;5036195;28;20033;-52
2022/03/06 04:31:52;;;;;;;29.17;13.52;;;;;;;-4.47;88.26;99916.81;5031204;28;20072;-52
2022/03/06 04:34:17;;;;;;;26.75;12.82;;;;;;;-4.83;83.84;99923.34;5034946;28;20082;-53
2022/03/06 04:36:43;;;;;;;24.98;12.23;;;;;;;-5.28;84.11;99931.38;5033868;28;20048;-54
2022/03/06 04:39:08;;;;;;;26.77;13.20;;;;;;;-5.04;86.35;99932.00;5036343;28;20033;-51
2022/03/06 04:41:34;;;;;;;25.33;12.18;;;;;;;-4.92;86.51;99938.00;5040111;28;20582;-53
2022/03/06 04:43:59;;;;;;;29.73;14.30;;;;;;;-4.69;88.71;99933.50;5041108;28;20056;-52
2022/03/06 04:46:24;;;;;;;22.77;12.60;;;;;;;-3.80;93.82;99941.66;5033236;28;20060;-53
2022/03/06 04:48:50;;;;;;;29.02;13.90;;;;;;;-3.75;90.40;99941.28;5032487;28;20150;-55
2022/03/06 04:51:16;;;;;;;29.00;13.98;;;;;;;-4.21;86.08;99940.00;5035416;28;20496;-54
2022/03/06 04:53:41;;;;;;;21.95;12.93;;;;;;;-4.52;83.79;99949.56;5030230;28;20463;-54
2022/03/06 04:56:06;;;;;;;23.58;12.60;;;;;;;-4.80;83.68;99946.63;5029187;28;20484;-52
2022/03/06 04:58:32;;;;;;;24.70;12.95;;;;;;;-4.74;87.56;99942.69;5033136;28;20037;-53
2022/03/06 05:00:57;;;;;;;27.13;13.48;;;;;;;-4.60;85.64;99942.38;5030512;28;20045;-55
2022/03/06 05:03:23;;;;;;;23.30;12.98;;;;;;;-4.66;85.14;99945.50;5031273;28;20136;-52
2022/03/06 05:05:49;;;;;;;24.10;11.18;;;;;;;-4.19;92.05;99952.00;5027478;28;20515;-55
2022/03/06 05:08:14;;;;;;;22.98;11.60;;;;;;;-4.28;91.09;99951.94;5029954;28;20086;-54
2022/03/06 05:10:40;;;;;;;27.42;13.75;;;;;;;-4.72;87.24;99954.66;5034922;28;20059;-52
2022/03/06 05:13:05;;;;;;;22.42;11.50;;;;;;;-4.96;85.83;99961.94;5035653;28;20076;-52
2022/03/06 05:15:31;;;;;;;27.45;14.65;;;;;;;-4.74;87.71;99953.13;5028913;28;20570;-54
2022/03/06 05:17:56;;;;;;;27.70;13.70;;;;;;;-4.26;89.48;99944.78;5017766;28;20029;-52
2022/03/06 05:20:22;;;;;;;27.98;14.00;;;;;;;-4.16;86.78;99951.72;5035669;27;20037;-51
2022/03/06 05:22:48;;;;;;;26.52;14.27;;;;;;;-4.20;86.33;99955.56;5029543;28;20032;-52
2022/03/06 05:25:14;;;;;;;26.27;12.90;;;;;;;-4.09;86.06;99949.44;5035720;28;20116;-51
2022/03/06 05:27:39;;;;;;;28.38;12.77;;;;;;;-3.69;91.44;99957.31;5029308;28;20516;-51
2022/03/06 05:30:06;;;;;;;26.45;12.95;;;;;;;-4.07;88.58;99957.13;5033030;28;20037;-52
2022/03/06 05:32:31;;;;;;;24.77;12.93;;;;;;;-4.49;86.38;99959.78;5031303;28;20022;-54
2022/03/06 05:34:57;;;;;;;26.33;14.10;;;;;;;-3.98;88.98;99961.59;5036916;28;20527;-54
2022/03/06 05:37:22;;;;;;;29.90;12.15;;;;;;;-3.88;87.37;99951.97;5033592;28;20392;-54
2022/03/06 05:39:47;;;;;;;26.88;11.73;;;;;;;-3.99;88.55;99959.94;5035892;28;20581;-54
2022/03/06 05:42:14;;;;;;;27.15;12.93;;;;;;;-4.57;84.29;99961.28;5029711;28;20045;-55
2022/03/06 05:44:40;;;;;;;24.83;11.70;;;;;;;-4.72;86.00;99964.31;5031569;28;20029;-55
2022/03/06 05:47:06;;;;;;;25.42;11.55;;;;;;;-4.76;87.77;99966.34;5033726;28;20046;-54
2022/03/06 05:49:31;;;;;;;21.77;10.98;;;;;;;-4.18;91.85;99956.25;5029298;28;20112;-53
2022/03/06 05:51:56;;;;;;;24.73;12.40;;;;;;;-4.38;86.77;99970.19;5028769;28;20392;-54
2022/03/06 05:54:22;;;;;;;19.35;11.02;;;;;;;-4.36;85.85;99973.53;5033581;28;20495;-54
2022/03/06 05:56:47;;;;;;;21.23;11.93;;;;;;;-4.46;86.29;99975.25;5031139;28;20049;-53
2022/03/06 05:59:13;;;;;;;25.13;11.60;;;;;;;-4.69;85.36;99964.91;5034116;28;20068;-54
2022/03/06 06:01:38;;;;;;;24.63;11.70;;;;;;;-4.86;85.36;99973.31;5027691;28;20049;-54
2022/03/06 06:04:04;;;;;;;26.13;11.60;;;;;;;-4.76;87.98;99979.44;5029492;28;20029;-54
2022/03/06 06:06:29;;;;;;;23.42;12.27;;;;;;;-4.69;88.81;99987.59;5042180;28;20044;-54
2022/03/06 06:08:54;;;;;;;25.17;11.75;;;;;;;-4.59;87.68;99985.91;5036322;28;20539;-51
2022/03/06 06:11:20;;;;;;;27.38;12.75;;;;;;;-4.74;85.72;99988.00;5033633;28;20050;-54
2022/03/06 06:13:46;;;;;;;23.05;11.82;;;;;;;-4.44;90.40;99986.41;5027901;28;20033;-52
2022/03/06 06:16:11;;;;;;;22.38;12.32;;;;;;;-4.57;87.83;99990.06;5031294;28;20112;-54
2022/03/06 06:18:37;;;;;;;24.27;12.32;;;;;;;-4.63;86.30;99994.94;5033740;28;20033;-53
2022/03/06 06:21:03;;;;;;;21.50;12.02;;;;;;;-4.74;85.99;99998.47;5037028;28;20106;-53
2022/03/06 06:23:28;;;;;;;22.40;11.82;;;;;;;-4.80;84.97;99993.72;5031308;28;20029;-55
2022/03/06 06:25:54;;;;;;;25.70;12.35;;;;;;;-4.81;84.68;99997.28;5033060;28;20037;-54
2022/03/06 06:28:19;;;;;;;21.60;11.50;;;;;;;-4.73;84.58;100001.91;5033150;28;20045;-54
2022/03/06 06:30:45;;;;;;;23.10;11.90;;;;;;;-4.83;83.72;100010.47;5028692;28;20049;-52
2022/03/06 06:33:10;;;;;;;24.80;12.40;;;;;;;-4.84;83.90;100000.13;5034652;28;20048;-52
2022/03/06 06:35:36;;;;;;;26.65;11.60;;;;;;;-4.63;83.69;100006.25;5018329;28;20052;-53
2022/03/06 06:38:02;;;;;;;22.88;11.25;;;;;;;-4.35;82.65;100007.41;5027976;28;20033;-54
2022/03/06 06:40:27;;;;;;;24.33;11.65;;;;;;;-3.54;79.60;100011.97;5038184;28;20395;-53
2022/03/06 06:42:53;;;;;;;25.77;12.23;;;;;;;-2.52;76.13;100017.78;5043456;28;20041;-52
2022/03/06 06:45:18;;;;;;;25.40;13.13;;;;;;;-1.61;72.06;100012.88;5045010;28;20026;-54
2022/03/06 06:47:44;;;;;;;22.55;11.18;;;;;;;-2.30;72.59;100005.31;5040990;28;20044;-53
2022/03/06 06:50:09;;;;;;;21.38;11.18;;;;;;;0.41;63.97;100009.72;5032387;28;20460;-54
2022/03/06 06:52:35;;;;;;;23.42;12.18;;;;;;;1.75;58.80;100017.63;5040099;28;20526;-55
2022/03/06 06:55:00;;;;;;;25.58;13.05;;;;;;;2.73;54.29;100009.44;5039824;28;20480;-54
2022/03/06 06:57:26;;;;;;;24.08;11.65;;;;;;;1.98;55.26;100011.66;5035342;28;20037;-53
2022/03/06 06:59:51;;;;;;;22.27;11.50;;;;;;;1.66;57.97;100024.72;5035164;28;20028;-54
2022/03/06 07:02:16;;;;;;;18.02;10.50;;;;;;;2.26;55.31;100020.84;5035532;28;20041;-51
2022/03/06 07:04:42;;;;;;;18.52;11.07;;;;;;;1.53;57.69;100023.56;5032083;28;20033;-51
2022/03/06 07:07:07;;;;;;;20.60;11.77;;;;;;;1.89;55.60;100035.44;5032156;28;20045;-53
2022/03/06 07:09:33;;;;;;;21.60;11.50;;;;;;;1.17;57.38;100034.41;5040793;28;20522;-52
2022/03/06 07:11:58;;;;;;;22.65;12.68;;;;;;;1.21;57.44;100035.75;5030310;28;20049;-54
2022/03/06 07:14:23;;;;;;;18.95;11.07;;;;;;;-0.78;63.71;100041.78;5030779;28;20032;-53
2022/03/06 07:16:49;;;;;;;22.85;13.35;;;;;;;-0.05;64.41;100052.13;5034027;28;20042;-51
2022/03/06 07:19:14;;;;;;;19.58;11.05;;;;;;;1.01;59.41;100062.41;5040314;28;20032;-51
2022/03/06 07:21:40;;;;;;;22.60;12.18;;;;;;;2.19;56.21;100056.06;5036870;28;20110;-51
2022/03/06 07:24:06;;;;;;;24.20;12.63;;;;;;;2.80;53.16;100060.72;5036816;28;20037;-53
2022/03/06 07:26:31;;;;;;;19.90;12.25;;;;;;;0.54;61.21;100054.97;5037272;28;20040;-51
2022/03/06 07:28:57;;;;;;;21.05;11.75;;;;;;;0.62;61.01;100057.66;5031927;28;20033;-52
2022/03/06 07:31:22;;;;;;;19.30;12.02;;;;;;;0.02;64.38;100065.50;5032758;28;20040;-50
2022/03/06 07:33:48;;;;;;;20.17;11.77;;;;;;;-0.33;66.03;100071.66;5030702;28;20409;-53
2022/03/06 07:36:13;;;;;;;19.58;12.07;;;;;;;0.10;64.44;100060.31;5040621;28;20041;-51
2022/03/06 07:38:38;;;;;;;22.48;11.82;;;;;;;-0.22;65.11;100067.00;5040844;28;20473;-52
2022/03/06 07:41:04;;;;;;;20.30;12.45;;;;;;;-0.15;64.75;100075.13;5035496;28;20037;-54
2022/03/06 07:43:29;;;;;;;23.00;11.95;;;;;;;-0.22;65.91;100074.91;5037091;28;20033;-53
2022/03/06 07:45:55;;;;;;;25.30;13.30;;;;;;;-0.50;66.55;100071.53;5035189;28;20061;-52
2022/03/06 07:48:21;;;;;;;20.88;13.02;;;;;;;-0.72;67.71;100075.41;5035574;28;20037;-52
2022/03/06 07:50:47;;;;;;;26.65;13.52;;;;;;;-0.41;66.98;100071.59;5035478;28;20442;-55
2022/03/06 07:53:12;;;;;;;21.10;12.52;;;;;;;-0.72;68.73;100078.06;5036889;28;20029;-55
2022/03/06 07:55:37;;;;;;;23.33;13.63;;;;;;;-0.46;68.50;100077.31;5030591;28;20056;-52
2022/03/06 07:58:03;;;;;;;23.10;12.95;;;;;;;-0.35;67.57;100077.09;5030151;28;20472;-54
2022/03/06 08:00:28;;;;;;;28.77;13.55;;;;;;;0.03;67.27;100075.09;5033246;28;20050;-54
2022/03/06 08:02:56;;;;;;;23.17;12.57;;;;;;;-0.22;67.78;100069.63;5035248;28;20045;-54
2022/03/06 08:05:21;;;;;;;26.13;13.02;;;;;;;0.09;66.64;100082.38;5030713;28;20051;-54
2022/03/06 08:07:47;;;;;;;20.77;12.68;;;;;;;0.19;66.51;100083.09;5036566;28;20782;-53
2022/03/06 08:10:12;;;;;;;25.00;13.45;;;;;;;-0.17;69.16;100086.78;5035478;28;20033;-53
2022/03/06 08:12:38;;;;;;;23.77;13.30;;;;;;;-0.03;68.08;100088.88;5030763;28;20445;-54
2022/03/06 08:15:04;;;;;;;22.85;13.25;;;;;;;-0.30;69.40;100089.78;5035806;28;20068;-52
2022/03/06 08:17:29;;;;;;;26.20;14.90;;;;;;;-0.54;69.77;100087.78;5040824;28;20376;-54
2022/03/06 08:19:55;;;;;;;27.13;15.50;;;;;;;-0.15;69.62;100090.94;5030844;28;20029;-54
2022/03/06 08:22:23;;;;;;;27.83;15.43;;;;;;;-0.04;69.04;100092.50;5032835;28;20053;-53
2022/03/06 08:24:49;;;;;;;33.50;16.85;;;;;;;0.05;68.51;100094.22;5032282;28;20420;-54
2022/03/06 08:27:14;;;;;;;35.38;17.40;;;;;;;0.37;68.04;100088.31;5035083;28;20140;-51
2022/03/06 08:29:40;;;;;;;30.98;17.90;;;;;;;0.46;67.62;100094.50;5040142;28;20032;-53
2022/03/06 08:32:06;;;;;;;31.33;17.77;;;;;;;0.57;68.14;100090.75;5028260;28;20048;-55
2022/03/06 08:34:31;;;;;;;169.60;53.80;;;;;;;1.31;65.36;100097.16;5035157;28;20029;-53
2022/03/06 08:36:57;;;;;;;65.10;30.00;;;;;;;1.80;65.35;100085.81;5045878;28;20523;-52
2022/03/06 08:39:22;;;;;;;31.70;19.05;;;;;;;1.96;65.00;100096.41;5030812;28;20387;-54
2022/03/06 08:41:47;;;;;;;30.20;17.08;;;;;;;2.45;63.69;100092.91;5034410;28;20068;-53
2022/03/06 08:44:14;;;;;;;27.40;15.98;;;;;;;2.76;63.51;100096.44;5037807;28;20491;-54
2022/03/06 08:46:39;;;;;;;29.40;16.65;;;;;;;3.12;60.01;100093.34;5038205;28;20051;-55
2022/03/06 08:49:05;;;;;;;31.83;17.25;;;;;;;3.42;60.21;100101.44;5036439;28;20029;-54
2022/03/06 08:51:32;;;;;;;26.05;15.68;;;;;;;3.44;60.62;100100.31;5019171;28;20033;-54
2022/03/06 08:53:57;;;;;;;27.30;16.17;;;;;;;3.81;58.71;100096.06;5034464;28;20037;-52
2022/03/06 08:56:23;;;;;;;26.60;16.15;;;;;;;4.48;56.22;100105.94;5036098;28;20072;-52
2022/03/06 08:58:48;;;;;;;28.90;15.55;;;;;;;3.66;57.91;100098.66;5030979;28;20040;-54
2022/03/06 09:01:14;;;;;;;30.95;17.00;;;;;;;4.40;57.29;100098.06;5039996;28;20439;-54
2022/03/06 09:03:39;;;;;;;30.58;16.98;;;;;;;3.63;55.63;100099.00;5035663;28;20076;-53
2022/03/06 09:06:04;;;;;;;29.33;16.15;;;;;;;3.43;56.49;100103.13;5033218;28;20045;-54
2022/03/06 09:08:30;;;;;;;28.33;17.23;;;;;;;3.59;56.63;100103.00;5030487;28;20025;-55
2022/03/06 09:10:55;;;;;;;29.35;16.35;;;;;;;4.54;54.43;100097.25;5016150;28;20042;-54
2022/03/06 09:13:21;;;;;;;28.27;17.08;;;;;;;5.12;51.10;100100.06;5039428;28;20028;-52
2022/03/06 09:15:46;;;;;;;24.98;13.90;;;;;;;4.52;52.70;100096.63;5037561;28;20049;-54
2022/03/06 09:18:12;;;;;;;25.00;14.23;;;;;;;4.18;53.63;100093.63;5029872;28;20120;-54
2022/03/06 09:20:37;;;;;;;25.10;14.32;;;;;;;5.22;50.70;100098.94;5029353;28;20064;-52
2022/03/06 09:23:05;;;;;;;23.08;14.35;;;;;;;6.72;49.89;100092.78;5034571;28;20030;-54
2022/03/06 09:25:32;;;;;;;24.05;14.55;;;;;;;6.24;48.59;100099.59;5034042;28;20040;-55
2022/03/06 09:27:59;;;;;;;25.88;14.15;;;;;;;6.54;47.49;100098.56;5038587;28;20025;-56
2022/03/06 09:30:24;;;;;;;27.02;14.20;;;;;;;5.70;48.13;100102.78;5032632;28;20072;-53
2022/03/06 09:32:50;;;;;;;22.85;13.85;;;;;;;5.78;48.65;100097.31;5028215;28;20447;-54
2022/03/06 09:35:16;;;;;;;23.67;13.32;;;;;;;6.52;47.85;100104.13;5035295;28;20079;-55
2022/03/06 09:37:42;;;;;;;26.45;14.48;;;;;;;6.85;46.25;100100.81;5033889;28;20036;-54
2022/03/06 09:40:08;;;;;;;25.88;13.88;;;;;;;7.03;47.29;100110.97;5028606;28;20092;-53
2022/03/06 09:42:34;;;;;;;21.70;13.32;;;;;;;7.42;45.00;100104.97;5034844;28;20020;-55
2022/03/06 09:45:08;;;;;;;22.27;13.98;;;;;;;6.92;45.04;100101.69;5035844;28;20033;-54
2022/03/06 09:47:33;;;;;;;21.52;13.55;;;;;;;6.85;45.72;100100.81;5028038;28;20064;-55
2022/03/06 09:49:59;;;;;;;20.92;13.00;;;;;;;7.26;45.29;100097.31;5034577;28;20030;-54
2022/03/06 09:52:24;;;;;;;20.42;12.23;;;;;;;7.13;43.82;100109.56;5018295;28;20036;-54
2022/03/06 09:54:49;;;;;;;16.75;11.35;;;;;;;7.45;42.85;100101.91;5028019;28;20253;-54
2022/03/06 09:57:19;;;;;;;19.50;12.55;;;;;;;6.03;44.34;100103.09;5010203;28;20109;-54
2022/03/06 09:59:44;;;;;;;19.92;11.90;;;;;;;6.13;44.12;100100.13;5014224;28;20145;-53
2022/03/06 10:02:10;;;;;;;18.52;12.10;;;;;;;6.11;45.19;100101.31;5013099;28;20037;-54
2022/03/06 10:04:35;;;;;;;18.20;11.48;;;;;;;5.53;44.77;100106.69;5015708;28;20064;-51
2022/03/06 10:07:05;;;;;;;19.63;12.65;;;;;;;6.57;43.20;100098.22;5008253;28;20492;-52
2022/03/06 10:09:31;;;;;;;20.80;11.70;;;;;;;6.22;43.55;100095.50;5009497;28;20254;-51
2022/03/06 10:11:56;;;;;;;18.55;11.77;;;;;;;7.01;43.75;100103.16;5007555;28;20392;-52
2022/03/06 10:14:41;;;;;;;18.63;11.45;;;;;;;7.56;42.53;100103.16;5009257;28;20022;-51
2022/03/06 10:17:13;;;;;;;19.75;13.15;;;;;;;7.13;42.34;100106.91;5030069;28;20049;-51
2022/03/06 10:20:04;;;;;;;24.63;16.58;;;;;;;7.31;42.58;100105.53;5037322;28;20514;-53
2022/03/06 10:22:31;;;;;;;18.20;11.82;;;;;;;7.51;38.61;100106.44;5036513;28;20080;-54
2022/03/06 10:25:08;;;;;;;20.27;11.18;;;;;;;7.07;39.08;100105.03;5032633;28;20444;-54
2022/03/06 10:27:49;;;;;;;16.10;10.98;;;;;;;7.24;39.44;100100.19;5033247;28;20518;-53
2022/03/06 10:30:34;;;;;;;19.25;10.73;;;;;;;6.66;39.86;100102.34;5030381;28;20030;-53
2022/03/06 10:33:00;;;;;;;16.52;10.05;;;;;;;6.39;39.84;100096.84;5033676;28;20072;-52
2022/03/06 10:35:36;;;;;;;14.90;9.52;;;;;;;6.29;40.51;100098.19;5037813;28;20078;-50
2022/03/06 10:38:20;;;;;;;16.33;9.85;;;;;;;5.65;41.05;100094.53;5035079;28;20033;-51
2022/03/06 10:40:46;;;;;;;16.67;10.80;;;;;;;5.90;40.58;100096.81;5021660;28;20125;-54
2022/03/06 10:43:19;;;;;;;18.40;10.38;;;;;;;6.24;40.69;100090.78;5018993;28;20036;-54
2022/03/06 10:45:45;;;;;;;16.83;9.85;;;;;;;5.82;40.33;100081.81;5018939;28;20089;-54
2022/03/06 10:48:11;;;;;;;15.50;9.98;;;;;;;6.24;40.68;100077.47;5010719;28;20116;-53
2022/03/06 10:50:36;;;;;;;19.25;11.00;;;;;;;6.82;39.71;100085.25;5010588;28;20042;-52
2022/03/06 10:53:21;;;;;;;22.35;14.68;;;;;;;7.29;40.04;100072.94;5006824;28;20428;-53
2022/03/06 10:55:47;;;;;;;13.88;9.07;;;;;;;6.93;36.68;100075.84;5019067;28;20506;-53
2022/03/06 10:58:12;;;;;;;10.10;6.95;;;;;;;5.82;35.48;100082.63;5030434;28;20061;-54
2022/03/06 11:00:38;;;;;;;14.00;8.60;;;;;;;5.69;35.77;100068.38;5046330;28;20132;-55
2022/03/06 11:03:04;;;;;;;13.02;8.25;;;;;;;5.74;36.45;100076.59;5032999;28;20580;-53
2022/03/06 11:05:30;;;;;;;13.38;8.15;;;;;;;5.79;36.47;100068.88;5028447;28;20495;-54
2022/03/06 11:07:55;;;;;;;12.80;8.82;;;;;;;5.94;35.53;100071.50;5014737;28;20087;-53
2022/03/06 11:10:21;;;;;;;12.35;8.00;;;;;;;6.06;35.86;100069.97;5034043;28;20406;-53
2022/03/06 11:12:47;;;;;;;14.75;8.85;;;;;;;5.98;37.41;100062.13;5012771;28;20131;-54